createdAt,value
2023-01-08T00:00:28.484Z,84.6
2023-01-08T00:01:31.799Z,84.6
2023-01-08T00:02:34.621Z,84.7
2023-01-08T00:03:39.505Z,84.7
2023-01-08T00:04:44.093Z,84.7
2023-01-08T00:05:46.854Z,84.7
2023-01-08T00:06:49.561Z,84.8
2023-01-08T00:07:52.207Z,84.8
2023-01-08T00:08:55.061Z,84.9
2023-01-08T00:09:59.613Z,84.9
2023-01-08T00:11:02.865Z,84.9
2023-01-08T00:12:06.584Z,85
2023-01-08T00:13:10.043Z,85.1
2023-01-08T00:14:13.621Z,85.1
2023-01-08T00:15:16.843Z,85.2
2023-01-08T00:16:20.373Z,85.2
2023-01-08T00:17:23.739Z,85.1
2023-01-08T00:18:26.162Z,85.1
2023-01-08T00:19:29.251Z,85.1
2023-01-08T00:20:32.094Z,85
2023-01-08T00:21:35.199Z,85
2023-01-08T00:22:38.512Z,84.9
2023-01-08T00:23:41.362Z,85
2023-01-08T00:24:45.247Z,84.8
2023-01-08T00:25:49.370Z,84.8
2023-01-08T00:26:52.857Z,84.8
2023-01-08T00:27:56.551Z,84.8
2023-01-08T00:28:59.989Z,84.7
2023-01-08T00:30:03.702Z,84.7
2023-01-08T00:31:07.040Z,84.8
2023-01-08T00:32:10.813Z,84.7
2023-01-08T00:33:14.216Z,84.6
2023-01-08T00:34:17.309Z,84.6
2023-01-08T00:35:20.331Z,84.5
2023-01-08T00:36:24.682Z,84.5
2023-01-08T00:37:28.641Z,84.5
2023-01-08T00:38:31.866Z,84.4
2023-01-08T00:39:36.206Z,84.5
2023-01-08T00:40:39.756Z,84.5
2023-01-08T00:41:58.933Z,84.5
2023-01-08T00:43:02.961Z,84.5
2023-01-08T00:44:07.930Z,84.5
2023-01-08T00:45:11.896Z,84.5
2023-01-08T00:46:15.377Z,84.4
2023-01-08T00:47:18.448Z,84.4
2023-01-08T00:48:21.399Z,84.4
2023-01-08T00:49:23.930Z,84.3
2023-01-08T00:50:27.772Z,85
2023-01-08T00:51:30.758Z,85.6
2023-01-08T00:52:33.759Z,84.4
2023-01-08T00:53:36.914Z,84.2
2023-01-08T00:54:41.157Z,84.2
2023-01-08T00:55:44.385Z,84.1
2023-01-08T00:56:48.247Z,84.2
2023-01-08T00:57:51.044Z,84.2
2023-01-08T00:58:53.755Z,84.2
2023-01-08T00:59:56.868Z,84.3
2023-01-08T01:01:00.257Z,84.3
2023-01-08T01:02:04.643Z,84.3
2023-01-08T01:03:07.575Z,84.2
2023-01-08T01:04:10.629Z,84.1
2023-01-08T01:05:14.536Z,84.2
2023-01-08T01:06:18.375Z,84.1
2023-01-08T01:07:21.384Z,84
2023-01-08T01:08:23.911Z,83.9
2023-01-08T01:09:26.983Z,83.9
2023-01-08T01:10:30.457Z,83.9
2023-01-08T01:11:32.737Z,83.9
2023-01-08T01:12:36.834Z,84
2023-01-08T01:13:39.205Z,83.9
2023-01-08T01:14:41.644Z,83.9
2023-01-08T01:15:44.985Z,84
2023-01-08T01:16:49.236Z,84
2023-01-08T01:17:52.548Z,84
2023-01-08T01:18:55.500Z,83.9
2023-01-08T01:19:57.658Z,83.9
2023-01-08T01:21:00.396Z,83.9
2023-01-08T01:22:03.165Z,83.8
2023-01-08T01:23:06.632Z,84
2023-01-08T01:24:09.378Z,84.2
2023-01-08T01:25:11.806Z,84.3
2023-01-08T01:26:15.225Z,84.3
2023-01-08T01:27:18.687Z,84.3
2023-01-08T01:28:22.983Z,84.3
2023-01-08T01:29:26.080Z,84.2
2023-01-08T01:30:29.595Z,84.2
2023-01-08T01:31:32.899Z,84.3
2023-01-08T01:32:36.036Z,84.2
2023-01-08T01:33:39.481Z,84
2023-01-08T01:34:41.666Z,84
2023-01-08T01:35:44.789Z,84
2023-01-08T01:36:48.126Z,84
2023-01-08T01:37:51.153Z,84
2023-01-08T01:38:54.522Z,84
2023-01-08T01:39:57.933Z,83.9
2023-01-08T01:41:00.518Z,83.9
2023-01-08T01:42:04.282Z,84
2023-01-08T01:43:07.119Z,84
2023-01-08T01:44:11.290Z,84
2023-01-08T01:45:14.656Z,84.1
2023-01-08T01:46:17.667Z,84.2
2023-01-08T01:47:20.994Z,84.2
2023-01-08T01:48:23.920Z,84.2
2023-01-08T01:49:27.086Z,84.3
2023-01-08T01:50:30.441Z,84.2
2023-01-08T01:51:33.261Z,84.2
2023-01-08T01:52:36.339Z,84.3
2023-01-08T01:53:39.439Z,84.5
2023-01-08T01:54:42.418Z,84.4
2023-01-08T01:55:44.687Z,84.5
2023-01-08T01:56:47.391Z,84.6
2023-01-08T01:57:50.935Z,84.7
2023-01-08T01:58:54.110Z,84.9
2023-01-08T01:59:58.696Z,85
2023-01-08T02:01:02.156Z,85
2023-01-08T02:02:06.148Z,85.1
2023-01-08T02:03:09.792Z,85.1
2023-01-08T02:04:13.145Z,85.1
2023-01-08T02:05:17.281Z,85.1
2023-01-08T02:06:20.367Z,85
2023-01-08T02:07:23.374Z,85.1
2023-01-08T02:08:26.503Z,85
2023-01-08T02:09:29.018Z,84.9
2023-01-08T02:10:32.018Z,84.9
2023-01-08T02:11:35.438Z,84.6
2023-01-08T02:12:38.517Z,84.6
2023-01-08T02:13:42.120Z,84.5
2023-01-08T02:14:45.031Z,84.4
2023-01-08T02:15:49.538Z,84.2
2023-01-08T02:16:52.482Z,84.3
2023-01-08T02:17:56.098Z,84.2
2023-01-08T02:18:59.589Z,84.1
2023-01-08T02:20:02.780Z,84.1
2023-01-08T02:21:05.547Z,84.1
2023-01-08T02:22:07.970Z,83.9
2023-01-08T02:23:10.981Z,83.9
2023-01-08T02:24:14.326Z,83.8
2023-01-08T02:25:17.096Z,83.6
2023-01-08T02:26:20.390Z,83.5
2023-01-08T02:27:23.223Z,83.3
2023-01-08T02:28:26.295Z,83.1
2023-01-08T02:29:29.156Z,83.1
2023-01-08T02:30:32.242Z,83.2
2023-01-08T02:31:36.927Z,83.3
2023-01-08T02:32:39.920Z,83.2
2023-01-08T02:33:43.058Z,83.2
2023-01-08T02:34:46.283Z,83.1
2023-01-08T02:35:49.543Z,83
2023-01-08T02:36:52.362Z,82.9
2023-01-08T02:37:54.519Z,82.8
2023-01-08T02:38:57.572Z,82.7
2023-01-08T02:40:00.621Z,82.7
2023-01-08T02:41:04.397Z,82.7
2023-01-08T02:42:07.780Z,82.8
2023-01-08T02:43:10.481Z,82.8
2023-01-08T02:44:13.599Z,82.7
2023-01-08T02:45:17.376Z,82.7
2023-01-08T02:46:21.813Z,82.7
2023-01-08T02:47:26.255Z,82.7
2023-01-08T02:48:28.701Z,82.7
2023-01-08T02:49:32.053Z,82.8
2023-01-08T02:50:35.189Z,82.9
2023-01-08T02:51:38.002Z,82.9
2023-01-08T02:52:41.273Z,83.1
2023-01-08T02:53:44.383Z,83.3
2023-01-08T02:54:47.644Z,83.9
2023-01-08T02:55:50.975Z,84.2
2023-01-08T02:56:53.959Z,84.2
2023-01-08T02:57:57.164Z,84.3
2023-01-08T02:58:59.931Z,84.6
2023-01-08T03:00:03.321Z,84.5
2023-01-08T03:01:07.091Z,84.7
2023-01-08T03:02:11.348Z,84.7
2023-01-08T03:03:16.135Z,85
2023-01-08T03:04:19.592Z,85.1
2023-01-08T03:05:22.643Z,85.3
2023-01-08T03:06:25.105Z,85.2
2023-01-08T03:07:28.694Z,85.4
2023-01-08T03:08:31.941Z,85.2
2023-01-08T03:09:35.595Z,85
2023-01-08T03:10:39.013Z,85.1
2023-01-08T03:11:42.317Z,85
2023-01-08T03:12:45.696Z,85.2
2023-01-08T03:13:48.769Z,85.1
2023-01-08T03:14:52.064Z,85
2023-01-08T03:15:54.851Z,85
2023-01-08T03:16:58.940Z,85
2023-01-08T03:18:02.517Z,85.1
2023-01-08T03:19:08.468Z,85.1
2023-01-08T03:20:11.551Z,85
2023-01-08T03:21:14.563Z,84.8
2023-01-08T03:22:18.091Z,84.8
2023-01-08T03:23:21.490Z,84.8
2023-01-08T03:24:24.867Z,84.6
2023-01-08T03:25:27.621Z,84.6
2023-01-08T03:26:30.433Z,84.5
2023-01-08T03:27:33.153Z,84.5
2023-01-08T03:28:36.010Z,84.2
2023-01-08T03:29:38.819Z,84.2
2023-01-08T03:30:42.543Z,84.1
2023-01-08T03:31:45.837Z,83.9
2023-01-08T03:32:48.955Z,83.9
2023-01-08T03:33:52.531Z,83.8
2023-01-08T03:34:56.971Z,83.7
2023-01-08T03:35:59.694Z,83.7
2023-01-08T03:37:03.448Z,83.7
2023-01-08T03:38:06.636Z,83.7
2023-01-08T03:39:09.492Z,83.5
2023-01-08T03:40:12.215Z,83.6
2023-01-08T03:41:15.329Z,83.5
2023-01-08T03:42:17.514Z,83.6
2023-01-08T03:43:20.622Z,83.6
2023-01-08T03:44:23.694Z,83.5
2023-01-08T03:45:26.538Z,83.6
2023-01-08T03:46:29.488Z,83.6
2023-01-08T03:47:32.815Z,83.3
2023-01-08T03:48:35.652Z,83.4
2023-01-08T03:49:38.910Z,83.4
2023-01-08T03:50:43.407Z,83.4
2023-01-08T03:51:46.499Z,83.2
2023-01-08T03:52:49.561Z,83.3
2023-01-08T03:53:52.427Z,83.4
2023-01-08T03:54:55.891Z,83.3
2023-01-08T03:55:58.994Z,83.4
2023-01-08T03:57:02.732Z,83.2
2023-01-08T03:58:05.527Z,83.3
2023-01-08T03:59:08.369Z,83.2
2023-01-08T04:00:11.527Z,83.3
2023-01-08T04:01:15.502Z,83.3
2023-01-08T04:02:20.004Z,83.2
2023-01-08T04:03:23.320Z,83.2
2023-01-08T04:04:26.848Z,83
2023-01-08T04:05:30.419Z,83
2023-01-08T04:06:34.733Z,83.1
2023-01-08T04:07:37.907Z,82.9
2023-01-08T04:08:40.424Z,83.1
2023-01-08T04:09:44.164Z,83.1
2023-01-08T04:10:47.086Z,83
2023-01-08T04:11:50.384Z,82.9
2023-01-08T04:12:53.757Z,83
2023-01-08T04:13:56.504Z,82.9
2023-01-08T04:14:59.665Z,82.9
2023-01-08T04:16:02.778Z,82.9
2023-01-08T04:17:06.539Z,83.1
2023-01-08T04:18:09.082Z,83.1
2023-01-08T04:19:11.791Z,83.1
2023-01-08T04:20:14.952Z,83.1
2023-01-08T04:21:18.169Z,83
2023-01-08T04:22:22.542Z,83.1
2023-01-08T04:23:25.563Z,83.1
2023-01-08T04:24:28.535Z,83.1
2023-01-08T04:25:31.996Z,83.2
2023-01-08T04:26:35.498Z,83.1
2023-01-08T04:27:37.991Z,83
2023-01-08T04:28:41.031Z,83
2023-01-08T04:29:43.845Z,83.1
2023-01-08T04:30:46.893Z,82.7
2023-01-08T04:31:50.025Z,82.8
2023-01-08T04:32:53.164Z,82.9
2023-01-08T04:33:56.535Z,82.9
2023-01-08T04:34:59.310Z,82.9
2023-01-08T04:36:01.953Z,83
2023-01-08T04:37:05.817Z,83.2
2023-01-08T04:38:12.724Z,83.2
2023-01-08T04:39:16.162Z,83.2
2023-01-08T04:40:18.877Z,83.2
2023-01-08T04:41:22.339Z,83.2
2023-01-08T04:42:25.145Z,83.2
2023-01-08T04:43:28.021Z,83.1
2023-01-08T04:44:30.782Z,83.1
2023-01-08T04:45:34.134Z,83
2023-01-08T04:46:37.531Z,82.8
2023-01-08T04:47:41.007Z,82.9
2023-01-08T04:48:44.293Z,82.8
2023-01-08T04:49:47.824Z,82.8
2023-01-08T04:50:51.260Z,82.7
2023-01-08T04:51:55.006Z,82.6
2023-01-08T04:52:58.543Z,82.6
2023-01-08T04:54:03.008Z,82.5
2023-01-08T04:55:06.385Z,82.4
2023-01-08T04:56:09.513Z,82.5
2023-01-08T04:57:13.303Z,82.4
2023-01-08T04:58:16.800Z,82.4
2023-01-08T04:59:20.069Z,82.2
2023-01-08T05:00:22.907Z,82.3
2023-01-08T05:01:26.310Z,82.4
2023-01-08T05:02:30.994Z,82.3
2023-01-08T05:03:34.741Z,82.4
2023-01-08T05:04:37.771Z,82.4
2023-01-08T05:05:40.213Z,82.3
2023-01-08T05:06:43.841Z,82.3
2023-01-08T05:07:47.062Z,82.5
2023-01-08T05:08:50.808Z,82.4
2023-01-08T05:09:54.889Z,82.3
2023-01-08T05:10:57.930Z,82.4
2023-01-08T05:12:00.967Z,82.5
2023-01-08T05:13:05.160Z,82.5
2023-01-08T05:14:08.258Z,82.4
2023-01-08T05:15:11.340Z,82.5
2023-01-08T05:16:15.173Z,82.6
2023-01-08T05:17:18.808Z,82.5
2023-01-08T05:18:21.876Z,82.5
2023-01-08T05:19:24.317Z,82.5
2023-01-08T05:20:28.145Z,82.5
2023-01-08T05:21:30.422Z,82.4
2023-01-08T05:22:33.123Z,82.5
2023-01-08T05:23:36.130Z,82.6
2023-01-08T05:24:39.365Z,82.6
2023-01-08T05:25:43.886Z,82.5
2023-01-08T05:26:46.977Z,82.5
2023-01-08T05:27:49.787Z,82.4
2023-01-08T05:28:53.194Z,82.4
2023-01-08T05:29:56.738Z,82.4
2023-01-08T05:31:00.784Z,82.4
2023-01-08T05:32:03.757Z,82.4
2023-01-08T05:33:06.676Z,82.4
2023-01-08T05:34:09.735Z,82.4
2023-01-08T05:35:12.195Z,82.1
2023-01-08T05:36:15.542Z,82.2
2023-01-08T05:37:18.055Z,82.2
2023-01-08T05:38:21.439Z,82.2
2023-01-08T05:39:25.015Z,82.1
2023-01-08T05:40:28.497Z,82.1
2023-01-08T05:41:32.707Z,82.1
2023-01-08T05:42:36.072Z,82.2
2023-01-08T05:43:38.620Z,82.4
2023-01-08T05:44:41.176Z,82.4
2023-01-08T05:45:44.014Z,82.5
2023-01-08T05:46:47.192Z,82.5
2023-01-08T05:47:49.622Z,82.7
2023-01-08T05:48:52.672Z,82.9
2023-01-08T05:49:56.342Z,82.9
2023-01-08T05:50:58.810Z,82.8
2023-01-08T05:52:01.880Z,83
2023-01-08T05:53:04.738Z,83.2
2023-01-08T05:54:07.893Z,83.4
2023-01-08T05:55:11.009Z,83.6
2023-01-08T05:56:13.562Z,83.9
2023-01-08T05:57:18.049Z,84.2
2023-01-08T05:58:21.406Z,84.4
2023-01-08T05:59:23.903Z,84.4
2023-01-08T06:00:27.089Z,84.5
2023-01-08T06:01:30.747Z,84.6
2023-01-08T06:02:34.264Z,85
2023-01-08T06:03:36.851Z,85
2023-01-08T06:04:39.798Z,85.2
2023-01-08T06:05:43.115Z,85.4
2023-01-08T06:06:46.273Z,85.6
2023-01-08T06:07:49.244Z,85.8
2023-01-08T06:08:52.339Z,86
2023-01-08T06:09:55.496Z,86.5
2023-01-08T06:10:59.352Z,86.6
2023-01-08T06:12:02.100Z,86.9
2023-01-08T06:13:06.551Z,87.1
2023-01-08T06:14:09.470Z,87.4
2023-01-08T06:15:12.498Z,87.7
2023-01-08T06:16:16.081Z,87.7
2023-01-08T06:17:18.833Z,87.8
2023-01-08T06:18:21.561Z,88
2023-01-08T06:19:23.736Z,88.1
2023-01-08T06:20:26.787Z,88.1
2023-01-08T06:21:29.818Z,88.1
2023-01-08T06:22:34.732Z,88.1
2023-01-08T06:23:37.527Z,88.2
2023-01-08T06:24:41.151Z,88.3
2023-01-08T06:25:44.528Z,88.5
2023-01-08T06:26:47.741Z,88.6
2023-01-08T06:27:50.627Z,88.8
2023-01-08T06:28:54.809Z,88.9
2023-01-08T06:29:57.428Z,88.9
2023-01-08T06:31:00.227Z,89
2023-01-08T06:32:03.446Z,88.9
2023-01-08T06:33:06.639Z,88.8
2023-01-08T06:34:10.288Z,89.1
2023-01-08T06:35:13.384Z,89.1
2023-01-08T06:36:16.127Z,89.2
2023-01-08T06:37:19.711Z,89.1
2023-01-08T06:38:22.822Z,89.2
2023-01-08T06:39:25.639Z,89.2
2023-01-08T06:40:29.167Z,89.1
2023-01-08T06:41:32.698Z,89.1
2023-01-08T06:42:34.911Z,89.1
2023-01-08T06:43:37.870Z,89.1
2023-01-08T06:44:42.179Z,89.1
2023-01-08T06:45:45.074Z,89.1
2023-01-08T06:46:48.417Z,89.1
2023-01-08T06:47:51.302Z,89.2
2023-01-08T06:48:54.773Z,89.2
2023-01-08T06:49:57.623Z,89.2
2023-01-08T06:51:00.907Z,89.2
2023-01-08T06:52:04.288Z,89.3
2023-01-08T06:53:07.641Z,89.3
2023-01-08T06:54:14.379Z,89.3
2023-01-08T06:55:17.184Z,89.5
2023-01-08T06:56:20.171Z,89.5
2023-01-08T06:57:23.158Z,89.6
2023-01-08T06:58:26.975Z,89.7
2023-01-08T06:59:30.920Z,89.7
2023-01-08T07:00:35.201Z,89.7
2023-01-08T07:01:37.961Z,89.8
2023-01-08T07:02:41.680Z,90
2023-01-08T07:03:45.596Z,90.1
2023-01-08T07:04:48.563Z,90.1
2023-01-08T07:05:51.888Z,90.1
2023-01-08T07:06:55.133Z,90
2023-01-08T07:07:57.463Z,89.9
2023-01-08T07:08:59.974Z,90
2023-01-08T07:10:03.415Z,89.9
2023-01-08T07:11:06.873Z,90
2023-01-08T07:12:09.957Z,90.1
2023-01-08T07:13:13.120Z,90.2
2023-01-08T07:14:16.815Z,90.3
2023-01-08T07:15:20.246Z,90.4
2023-01-08T07:16:24.416Z,90.3
2023-01-08T07:17:27.899Z,90.3
2023-01-08T07:18:31.273Z,90.3
2023-01-08T07:19:34.133Z,90.2
2023-01-08T07:20:37.619Z,90.2
2023-01-08T07:21:40.339Z,90.3
2023-01-08T07:22:43.527Z,90.3
2023-01-08T07:23:47.449Z,90.4
2023-01-08T07:24:51.133Z,90.3
2023-01-08T07:25:54.282Z,90.4
2023-01-08T07:26:57.274Z,90.4
2023-01-08T07:28:01.068Z,90.5
2023-01-08T07:29:04.568Z,90.6
2023-01-08T07:30:30.803Z,90.6
2023-01-08T07:31:35.343Z,90.6
2023-01-08T07:32:38.626Z,90.6
2023-01-08T07:33:41.951Z,90.6
2023-01-08T07:34:45.529Z,90.4
2023-01-08T07:35:49.009Z,90.5
2023-01-08T07:36:52.290Z,90.6
2023-01-08T07:37:55.305Z,90.6
2023-01-08T07:38:58.974Z,90.7
2023-01-08T07:40:02.083Z,90.7
2023-01-08T07:41:05.357Z,90.6
2023-01-08T07:42:08.723Z,90.6
2023-01-08T07:43:11.812Z,90.7
2023-01-08T07:44:14.553Z,90.7
2023-01-08T07:45:17.942Z,90.9
2023-01-08T07:46:21.585Z,91
2023-01-08T07:47:25.805Z,91.1
2023-01-08T07:48:28.242Z,91.1
2023-01-08T07:49:31.627Z,91
2023-01-08T07:50:34.545Z,91.2
2023-01-08T07:51:38.437Z,91.3
2023-01-08T07:52:41.214Z,91.3
2023-01-08T07:53:44.484Z,91.4
2023-01-08T07:54:47.282Z,91.4
2023-01-08T07:55:50.404Z,91.5
2023-01-08T07:56:53.874Z,91.5
2023-01-08T07:57:56.418Z,91.6
2023-01-08T07:58:59.432Z,91.6
2023-01-08T08:00:02.897Z,91.6
2023-01-08T08:01:05.607Z,91.8
2023-01-08T08:02:09.262Z,91.9
2023-01-08T08:03:14.488Z,91.8
2023-01-08T08:04:17.927Z,91.7
2023-01-08T08:05:20.101Z,91.9
2023-01-08T08:06:22.977Z,92.1
2023-01-08T08:07:26.065Z,92.2
2023-01-08T08:08:28.867Z,92.2
2023-01-08T08:09:32.194Z,92.2
2023-01-08T08:10:35.252Z,92.4
2023-01-08T08:11:38.231Z,92.8
2023-01-08T08:12:40.729Z,93
2023-01-08T08:13:42.878Z,93
2023-01-08T08:14:45.388Z,93.1
2023-01-08T08:15:49.218Z,93.1
2023-01-08T08:16:53.085Z,93
2023-01-08T08:17:56.136Z,93
2023-01-08T08:19:00.585Z,93
2023-01-08T08:20:03.115Z,92.9
2023-01-08T08:21:06.720Z,93
2023-01-08T08:22:09.955Z,93
2023-01-08T08:23:13.705Z,93.2
2023-01-08T08:24:16.465Z,93.2
2023-01-08T08:25:19.614Z,93.3
2023-01-08T08:26:22.981Z,93.5
2023-01-08T08:27:25.142Z,93.5
2023-01-08T08:28:28.485Z,93.5
2023-01-08T08:29:31.206Z,93.6
2023-01-08T08:30:33.953Z,93.6
2023-01-08T08:31:37.078Z,93.7
2023-01-08T08:32:40.838Z,93.8
2023-01-08T08:33:44.157Z,93.9
2023-01-08T08:34:48.387Z,94.1
2023-01-08T08:35:50.831Z,94.2
2023-01-08T08:36:53.899Z,94.3
2023-01-08T08:37:57.053Z,94.5
2023-01-08T08:39:00.629Z,94.5
2023-01-08T08:40:04.029Z,94.5
2023-01-08T08:41:06.763Z,94.5
2023-01-08T08:42:09.514Z,94.5
2023-01-08T08:43:12.586Z,94.5
2023-01-08T08:44:15.747Z,94.5
2023-01-08T08:45:19.145Z,94.5
2023-01-08T08:46:22.381Z,94.4
2023-01-08T08:47:25.613Z,94.5
2023-01-08T08:48:28.971Z,94.5
2023-01-08T08:49:32.548Z,94.6
2023-01-08T08:50:36.703Z,94.6
2023-01-08T08:51:38.942Z,94.6
2023-01-08T08:52:42.274Z,94.6
2023-01-08T08:53:45.394Z,94.6
2023-01-08T08:54:48.267Z,94.7
2023-01-08T08:55:50.996Z,94.7
2023-01-08T08:56:53.741Z,94.7
2023-01-08T08:57:56.449Z,94.9
2023-01-08T08:58:59.547Z,95
2023-01-08T09:00:02.697Z,95
2023-01-08T09:01:06.521Z,94.9
2023-01-08T09:02:09.782Z,94.9
2023-01-08T09:03:14.060Z,94.8
2023-01-08T09:04:16.644Z,94.8
2023-01-08T09:05:20.614Z,94.8
2023-01-08T09:06:24.678Z,94.9
2023-01-08T09:07:27.106Z,94.9
2023-01-08T09:08:29.662Z,94.9
2023-01-08T09:09:32.861Z,95
2023-01-08T09:10:36.069Z,95.1
2023-01-08T09:11:38.767Z,95.2
2023-01-08T09:12:42.213Z,95.1
2023-01-08T09:13:45.366Z,95.1
2023-01-08T09:14:48.622Z,95.2
2023-01-08T09:15:51.264Z,95.2
2023-01-08T09:16:54.076Z,95.3
2023-01-08T09:17:56.824Z,95.3
2023-01-08T09:19:00.089Z,95.5
2023-01-08T09:20:03.445Z,95.5
2023-01-08T09:21:07.354Z,95.4
2023-01-08T09:22:11.618Z,95.4
2023-01-08T09:23:14.612Z,95.4
2023-01-08T09:24:17.064Z,95.4
2023-01-08T09:25:20.194Z,95.2
2023-01-08T09:26:23.613Z,95.3
2023-01-08T09:27:26.153Z,95.3
2023-01-08T09:28:29.479Z,95.3
2023-01-08T09:29:32.250Z,95.4
2023-01-08T09:30:35.441Z,95.5
2023-01-08T09:31:38.868Z,95.6
2023-01-08T09:32:42.067Z,95.4
2023-01-08T09:33:45.329Z,95.5
2023-01-08T09:34:47.767Z,95.5
2023-01-08T09:35:50.774Z,95.6
2023-01-08T09:36:54.257Z,95.5
2023-01-08T09:37:58.761Z,95.5
2023-01-08T09:39:02.265Z,95.7
2023-01-08T09:40:05.660Z,95.7
2023-01-08T09:41:08.887Z,95.8
2023-01-08T09:42:11.430Z,95.8
2023-01-08T09:43:14.804Z,95.9
2023-01-08T09:44:17.822Z,95.8
2023-01-08T09:45:21.477Z,95.8
2023-01-08T09:46:25.070Z,95.9
2023-01-08T09:47:28.050Z,96
2023-01-08T09:48:30.517Z,96.2
2023-01-08T09:49:33.310Z,96.3
2023-01-08T09:50:35.756Z,96.3
2023-01-08T09:51:39.422Z,96.4
2023-01-08T09:52:45.357Z,96.5
2023-01-08T09:53:49.523Z,96.6
2023-01-08T09:54:52.921Z,96.7
2023-01-08T09:56:11.585Z,96.9
2023-01-08T09:57:14.801Z,97
2023-01-08T09:58:17.782Z,97
2023-01-08T09:59:20.844Z,97.1
2023-01-08T10:00:24.040Z,97.2
2023-01-08T10:01:28.348Z,97.2
2023-01-08T10:02:32.361Z,97.2
2023-01-08T10:03:36.010Z,97.2
2023-01-08T10:04:39.715Z,97.2
2023-01-08T10:05:42.549Z,97.2
2023-01-08T10:06:44.749Z,97.2
2023-01-08T10:07:47.851Z,97.3
2023-01-08T10:08:51.721Z,97.4
2023-01-08T10:09:55.706Z,97.4
2023-01-08T10:10:58.762Z,97.4
2023-01-08T10:12:01.791Z,97.4
2023-01-08T10:13:05.160Z,97.4
2023-01-08T10:14:07.937Z,97.4
2023-01-08T10:15:11.277Z,97.4
2023-01-08T10:16:13.664Z,97.4
2023-01-08T10:17:17.454Z,97.4
2023-01-08T10:18:20.277Z,97.4
2023-01-08T10:19:23.344Z,97.6
2023-01-08T10:20:26.232Z,97.5
2023-01-08T10:21:28.680Z,97.6
2023-01-08T10:22:31.522Z,97.5
2023-01-08T10:23:34.515Z,97.5
2023-01-08T10:24:37.772Z,97.5
2023-01-08T10:25:40.756Z,97.4
2023-01-08T10:26:43.735Z,97.5
2023-01-08T10:27:46.724Z,97.4
2023-01-08T10:28:50.017Z,97.5
2023-01-08T10:29:53.092Z,97.5
2023-01-08T10:30:56.100Z,97.5
2023-01-08T10:31:59.159Z,97.5
2023-01-08T10:33:02.132Z,97.5
2023-01-08T10:34:05.178Z,97.4
2023-01-08T10:35:08.047Z,97.4
2023-01-08T10:36:11.383Z,97.4
2023-01-08T10:37:14.477Z,97.5
2023-01-08T10:38:18.131Z,97.5
2023-01-08T10:39:21.216Z,97.4
2023-01-08T10:40:24.720Z,97.5
2023-01-08T10:41:28.335Z,97.4
2023-01-08T10:42:31.766Z,97.5
2023-01-08T10:43:35.153Z,97.6
2023-01-08T10:44:38.544Z,97.6
2023-01-08T10:45:42.079Z,97.6
2023-01-08T10:46:45.197Z,97.5
2023-01-08T10:47:48.564Z,97.6
2023-01-08T10:48:51.917Z,97.6
2023-01-08T10:49:55.627Z,97.7
2023-01-08T10:50:58.408Z,97.7
2023-01-08T10:52:02.116Z,97.8
2023-01-08T10:53:04.853Z,97.8
2023-01-08T10:54:08.299Z,97.9
2023-01-08T10:55:11.604Z,98
2023-01-08T10:56:15.840Z,98
2023-01-08T10:57:19.204Z,98
2023-01-08T10:58:22.831Z,98
2023-01-08T10:59:25.730Z,98.1
2023-01-08T11:00:29.425Z,98.1
2023-01-08T11:01:32.797Z,98
2023-01-08T11:02:40.513Z,97.9
2023-01-08T11:03:44.676Z,98.1
2023-01-08T11:04:48.049Z,98.1
2023-01-08T11:05:51.699Z,97.8
2023-01-08T11:06:54.771Z,97.7
2023-01-08T11:07:57.775Z,97.6
2023-01-08T11:09:00.595Z,97.7
2023-01-08T11:10:03.722Z,97.8
2023-01-08T11:11:07.373Z,97.9
2023-01-08T11:12:11.257Z,97.8
2023-01-08T11:13:14.600Z,97.9
2023-01-08T11:14:16.787Z,97.9
2023-01-08T11:15:20.418Z,98.9
2023-01-08T11:16:24.156Z,98.9
2023-01-08T11:17:27.510Z,98.2
2023-01-08T11:18:30.345Z,97.5
2023-01-08T11:19:33.896Z,97.3
2023-01-08T11:20:36.609Z,97.2
2023-01-08T11:21:39.332Z,97.2
2023-01-08T11:22:42.322Z,97.2
2023-01-08T11:23:45.418Z,97.3
2023-01-08T11:24:48.533Z,97.2
2023-01-08T11:25:51.899Z,97.3
2023-01-08T11:26:55.011Z,97.2
2023-01-08T11:27:58.585Z,97.1
2023-01-08T11:29:01.727Z,97.2
2023-01-08T11:30:05.188Z,97.3
2023-01-08T11:31:08.591Z,97.4
2023-01-08T11:32:11.996Z,97.4
2023-01-08T11:33:14.886Z,97.3
2023-01-08T11:34:17.744Z,97.4
2023-01-08T11:35:20.758Z,97.5
2023-01-08T11:36:24.121Z,97.6
2023-01-08T11:37:27.578Z,97.6
2023-01-08T11:38:31.233Z,97.7
2023-01-08T11:39:34.850Z,97.8
2023-01-08T11:40:37.995Z,97.7
2023-01-08T11:41:41.388Z,97.7
2023-01-08T11:42:44.508Z,97.7
2023-01-08T11:43:47.929Z,97.6
2023-01-08T11:44:51.400Z,97.6
2023-01-08T11:45:55.066Z,97.7
2023-01-08T11:46:58.708Z,97.7
2023-01-08T11:48:02.814Z,97.7
2023-01-08T11:49:06.098Z,97.6
2023-01-08T11:50:09.314Z,97.6
2023-01-08T11:51:12.399Z,97.6
2023-01-08T11:52:16.018Z,97.6
2023-01-08T11:53:18.737Z,97.6
2023-01-08T11:54:21.837Z,97.7
2023-01-08T11:55:24.588Z,97.7
2023-01-08T11:56:27.607Z,97.7
2023-01-08T11:57:30.419Z,97.6
2023-01-08T11:58:33.259Z,97.5
2023-01-08T11:59:37.024Z,97.5
2023-01-08T12:00:40.684Z,97.4
2023-01-08T12:01:44.334Z,97.3
2023-01-08T12:02:47.952Z,97.3
2023-01-08T12:03:50.953Z,97.4
2023-01-08T12:04:53.668Z,97.4
2023-01-08T12:05:57.330Z,97.4
2023-01-08T12:07:00.328Z,97.6
2023-01-08T12:08:03.620Z,97.7
2023-01-08T12:09:06.710Z,97.7
2023-01-08T12:10:09.766Z,97.6
2023-01-08T12:11:12.866Z,97.6
2023-01-08T12:12:16.626Z,97.6
2023-01-08T12:13:19.856Z,97.6
2023-01-08T12:14:22.977Z,97.5
2023-01-08T12:15:26.715Z,97.5
2023-01-08T12:16:30.369Z,97.5
2023-01-08T12:17:33.902Z,97.6
2023-01-08T12:18:36.659Z,97.6
2023-01-08T12:19:40.316Z,97.6
2023-01-08T12:20:43.109Z,97.3
2023-01-08T12:21:45.897Z,97.3
2023-01-08T12:22:48.896Z,97.3
2023-01-08T12:23:51.610Z,97.2
2023-01-08T12:24:54.971Z,97.1
2023-01-08T12:25:58.048Z,97.1
2023-01-08T12:27:01.073Z,97.2
2023-01-08T12:28:04.520Z,97.1
2023-01-08T12:29:07.745Z,97
2023-01-08T12:30:11.113Z,97
2023-01-08T12:31:15.085Z,96.9
2023-01-08T12:32:19.484Z,97
2023-01-08T12:33:22.930Z,97
2023-01-08T12:34:26.663Z,97
2023-01-08T12:35:29.190Z,97
2023-01-08T12:36:32.901Z,97
2023-01-08T12:37:36.275Z,96.9
2023-01-08T12:38:39.632Z,96.8
2023-01-08T12:39:42.764Z,96.8
2023-01-08T12:40:45.494Z,96.9
2023-01-08T12:41:48.749Z,96.9
2023-01-08T12:43:05.854Z,96.8
2023-01-08T12:44:09.138Z,96.7
2023-01-08T12:45:12.495Z,96.7
2023-01-08T12:46:16.600Z,96.7
2023-01-08T12:47:20.697Z,96.6
2023-01-08T12:48:23.790Z,96.6
2023-01-08T12:49:26.894Z,96.6
2023-01-08T12:50:29.881Z,96.5
2023-01-08T12:51:33.051Z,96.3
2023-01-08T12:52:36.098Z,96.1
2023-01-08T12:53:39.827Z,96.2
2023-01-08T12:54:43.229Z,96.1
2023-01-08T12:55:46.572Z,96.1
2023-01-08T12:56:50.060Z,96.3
2023-01-08T12:57:53.165Z,96.4
2023-01-08T12:58:55.881Z,96.2
2023-01-08T12:59:58.752Z,96.3
2023-01-08T13:01:02.282Z,96.3
2023-01-08T13:02:06.344Z,96.2
2023-01-08T13:03:10.560Z,96.2
2023-01-08T13:04:14.640Z,96.3
2023-01-08T13:05:17.891Z,96.3
2023-01-08T13:06:21.293Z,96.3
2023-01-08T13:07:23.764Z,96.2
2023-01-08T13:08:26.548Z,96.2
2023-01-08T13:09:29.894Z,96.3
2023-01-08T13:10:32.644Z,96.3
2023-01-08T13:11:36.440Z,96.1
2023-01-08T13:12:40.097Z,96.1
2023-01-08T13:13:43.422Z,96
2023-01-08T13:14:46.932Z,96
2023-01-08T13:15:49.630Z,96
2023-01-08T13:16:52.669Z,96
2023-01-08T13:17:56.280Z,95.9
2023-01-08T13:19:00.120Z,95.8
2023-01-08T13:20:03.900Z,95.8
2023-01-08T13:21:06.368Z,95.7
2023-01-08T13:22:09.095Z,95.7
2023-01-08T13:23:12.242Z,95.7
2023-01-08T13:24:15.361Z,95.5
2023-01-08T13:25:18.805Z,95.5
2023-01-08T13:26:21.875Z,95.6
2023-01-08T13:27:24.648Z,95.6
2023-01-08T13:28:27.743Z,95.7
2023-01-08T13:29:30.583Z,95.7
2023-01-08T13:30:33.402Z,95.6
2023-01-08T13:31:36.401Z,95.5
2023-01-08T13:32:40.270Z,95.5
2023-01-08T13:33:43.953Z,95.4
2023-01-08T13:34:48.041Z,95.4
2023-01-08T13:35:51.031Z,95.4
2023-01-08T13:36:54.316Z,95.4
2023-01-08T13:37:58.044Z,95.4
2023-01-08T13:39:01.214Z,95.4
2023-01-08T13:40:04.753Z,95.2
2023-01-08T13:41:07.822Z,95.1
2023-01-08T13:42:10.827Z,95.1
2023-01-08T13:43:13.925Z,95.2
2023-01-08T13:44:16.722Z,95.2
2023-01-08T13:45:19.800Z,95.3
2023-01-08T13:46:23.519Z,95.3
2023-01-08T13:47:27.249Z,95.3
2023-01-08T13:48:30.423Z,95.2
2023-01-08T13:49:33.454Z,95.2
2023-01-08T13:50:37.534Z,95.2
2023-01-08T13:51:40.772Z,95.1
2023-01-08T13:52:44.021Z,95
2023-01-08T13:53:47.519Z,95
2023-01-08T13:54:50.551Z,94.9
2023-01-08T13:55:54.025Z,95
2023-01-08T13:56:57.054Z,95.2
2023-01-08T13:58:00.403Z,95.3
2023-01-08T13:59:03.278Z,95.1
2023-01-08T14:00:07.296Z,95.1
2023-01-08T14:01:11.229Z,95
2023-01-08T14:02:15.620Z,95
2023-01-08T14:03:19.603Z,95.1
2023-01-08T14:04:22.047Z,94.9
2023-01-08T14:05:25.750Z,94.9
2023-01-08T14:06:29.844Z,94.7
2023-01-08T14:07:33.213Z,94.7
2023-01-08T14:08:36.576Z,94.5
2023-01-08T14:09:39.918Z,94.6